Greeley, CO

12:10 PM MDT on May 05, 2015 (GMT -0600)
Ross Hall - UNC | | Change Station
CLOSE
Current Station
Personal Weather Station
Location: Greeley, CO
Elevation: 4790 ft
Nearby Weather Stations

Elev 4790 ft 40.40 °N, 104.70 °W | Updated 42 seconds ago

Overcast
Overcast
52.8 °F
Feels Like 52.8 °F
N
5.0
Wind Variable Wind from ENE
Gusts 9.0 mph

Today
High -- | Low -- °F
--% Chance of Precip.
Yesterday
High -- | Low -- °F
Precip. -- in
5:53 AM 7:58 PM
Full, 97% visible
Pressure 29.96 in
Visibility 10.0 miles
Clouds Overcast 1000 ft
Dew Point 49 °F
Humidity 86%
Rainfall 0.00 in
Snow Depth Not available.
UV 3 out of 12
Pollen 3.10 out of 12
Air Quality Not available.
Flu Activity Sporadic
METAR KGXY 051755Z 10010KT 10SM OVC010 12/07 A2996 RMK AO1 10120 20080 57010

More Conditions Fewer Conditions

Pressure 29.96 in
Visibility 10.0 miles
Clouds Overcast 1000 ft
Dew Point 49 °F
Humidity 86%
Rainfall 0.00 in
Snow Depth Not available.
UV 3 out of 12
Pollen 3.10 out of 12
Air Quality Not available.
Flu Activity Sporadic
METAR KGXY 051755Z 10010KT 10SM OVC010 12/07 A2996 RMK AO1 10120 20080 57010

More Conditions Fewer Conditions

Nowcast | as of 9:03 am MDT on May 5, 2015

Scattered rain showers will develop over the Denver Metro area this morning...with a large area of steady rain advancing into Douglas and Elbert counties from the south. Rainfall will generally be light. There will also be widespread fog...with areas of dense fog in northern parts of Weld and Larimer counties. In these areas visibilities will be as low as 200 yards. Rainfall will become more widespread this afternoon...with fog decreasing.

×

10-Day Weather Forecast

Almanac

Astronomy

May. 05, 2015 Rise Set
Actual Time
Civil Twilight
Nautical Twilight
Astronomical Twilight
Moon
Length of Visible Light
Length of Day
Tomorrow will be .
, % of the Moon is Illuminated

Today's Extremes

State Highs State Lows

Community

WunderPhotos

Upload Photos

1,818,951 photos uploaded!

WunderBlogs® & News

Nearby

Air Quality

  Air Quality AQ Index Pollutant
Not available.

Snow Depth

Station Depth Elevation

Earthquake Activity

City Distance Mag. Time & Date
Minimum magnitude displayed is 2.5.

Coastal Water Temperatures

Place Temperature

Stations

Nearby Weather Stations

Station Location Temp. Windchill Dew Point Humidity Wind Precip. Elev Updated Type